createdAt,value
2017-09-11T00:00:03.047Z,14.90
2017-09-11T00:02:32.297Z,14.90
2017-09-11T00:05:01.492Z,15.00
2017-09-11T00:07:31.116Z,15.10
2017-09-11T00:10:00.508Z,15.20
2017-09-11T00:12:35.439Z,15.30
2017-09-11T00:15:08.450Z,15.30
2017-09-11T00:17:42.166Z,15.30
2017-09-11T00:20:14.634Z,15.30
2017-09-11T00:22:45.545Z,15.30
2017-09-11T00:25:17.578Z,15.40
2017-09-11T00:27:50.021Z,15.40
2017-09-11T00:30:20.063Z,15.40
2017-09-11T00:32:53.280Z,15.40
2017-09-11T00:35:24.489Z,15.40
2017-09-11T00:37:56.616Z,15.40
2017-09-11T00:40:27.251Z,15.40
2017-09-11T00:42:58.811Z,15.50
2017-09-11T00:45:29.287Z,15.50
2017-09-11T00:48:01.451Z,15.50
2017-09-11T00:50:32.818Z,15.50
2017-09-11T00:53:06.621Z,15.50
2017-09-11T00:55:38.413Z,15.50
2017-09-11T00:58:11.225Z,15.60
2017-09-11T01:00:40.882Z,15.60
2017-09-11T01:03:10.235Z,15.50
2017-09-11T01:05:39.675Z,15.60
2017-09-11T01:08:09.369Z,15.60
2017-09-11T01:10:39.322Z,15.60
2017-09-11T01:13:08.855Z,15.60
2017-09-11T01:15:38.320Z,15.60
2017-09-11T01:18:07.532Z,15.60
2017-09-11T01:20:37.615Z,15.60
2017-09-11T01:23:06.936Z,15.60
2017-09-11T01:25:36.966Z,15.60
2017-09-11T01:28:06.263Z,15.60
2017-09-11T01:30:36.739Z,15.60
2017-09-11T01:33:05.932Z,15.70
2017-09-11T01:35:35.273Z,15.70
2017-09-11T01:38:05.292Z,15.90
2017-09-11T01:40:35.064Z,15.80
2017-09-11T01:43:05.072Z,15.90
2017-09-11T01:45:35.958Z,15.90
2017-09-11T01:48:06.598Z,16.00
2017-09-11T01:50:35.778Z,16.00
2017-09-11T01:53:05.035Z,16.00
2017-09-11T01:55:34.922Z,15.90
2017-09-11T01:58:04.221Z,16.00
2017-09-11T02:00:33.468Z,16.00
2017-09-11T02:03:02.594Z,15.90
2017-09-11T02:05:32.547Z,15.90
2017-09-11T02:08:01.978Z,15.80
2017-09-11T02:10:31.233Z,15.80
2017-09-11T02:13:00.743Z,15.80
2017-09-11T02:15:30.599Z,15.70
2017-09-11T02:17:59.854Z,15.70
2017-09-11T02:20:30.094Z,15.70
2017-09-11T02:22:59.409Z,15.60
2017-09-11T02:25:29.731Z,15.70
2017-09-11T02:28:00.193Z,15.70
2017-09-11T02:30:29.562Z,15.60
2017-09-11T02:32:58.736Z,15.60
2017-09-11T02:35:27.858Z,15.60
2017-09-11T02:37:57.738Z,15.60
2017-09-11T02:40:27.732Z,15.60
2017-09-11T02:42:57.398Z,15.60
2017-09-11T02:45:26.682Z,15.70
2017-09-11T02:47:57.227Z,15.60
2017-09-11T02:50:26.688Z,15.60
2017-09-11T02:52:58.745Z,15.70
2017-09-11T02:55:28.939Z,15.70
2017-09-11T02:58:00.251Z,15.70
2017-09-11T03:00:29.668Z,15.60
2017-09-11T03:02:58.834Z,15.60
2017-09-11T03:05:28.810Z,15.50
2017-09-11T03:07:59.031Z,15.50
2017-09-11T03:10:28.570Z,15.50
2017-09-11T03:12:58.483Z,15.50
2017-09-11T03:15:27.804Z,15.50
2017-09-11T03:17:57.786Z,15.50
2017-09-11T03:20:29.128Z,15.50
2017-09-11T03:22:59.969Z,15.50
2017-09-11T03:25:29.282Z,15.50
2017-09-11T03:27:58.738Z,15.40
2017-09-11T03:30:28.537Z,15.40
2017-09-11T03:33:24.602Z,15.40
2017-09-11T03:35:54.162Z,15.40
2017-09-11T03:38:23.402Z,15.30
2017-09-11T03:40:52.642Z,15.30
2017-09-11T03:43:22.688Z,15.30
2017-09-11T03:45:52.030Z,15.20
2017-09-11T03:48:21.580Z,15.30
2017-09-11T03:50:51.744Z,15.30
2017-09-11T03:53:20.936Z,15.30
2017-09-11T03:55:50.234Z,15.30
2017-09-11T03:58:19.482Z,15.30
2017-09-11T04:00:48.746Z,15.30
2017-09-11T04:03:17.884Z,15.20
2017-09-11T04:05:47.894Z,15.20
2017-09-11T04:08:17.352Z,15.20
2017-09-11T04:10:46.499Z,15.20
2017-09-11T04:13:15.666Z,15.30
2017-09-11T04:15:44.897Z,15.20
2017-09-11T04:18:15.060Z,15.20
2017-09-11T04:20:44.233Z,15.20
2017-09-11T04:23:13.627Z,15.20
2017-09-11T04:25:43.859Z,15.20
2017-09-11T04:28:13.100Z,15.20
2017-09-11T04:30:42.238Z,15.10
2017-09-11T04:33:12.278Z,15.20
2017-09-11T04:35:41.763Z,15.20
2017-09-11T04:38:12.126Z,15.10
2017-09-11T04:40:41.334Z,15.10
2017-09-11T04:43:10.611Z,15.10
2017-09-11T04:45:39.869Z,15.00
2017-09-11T04:48:09.135Z,14.80
2017-09-11T04:50:38.848Z,14.70
2017-09-11T04:53:08.346Z,14.40
2017-09-11T04:55:38.188Z,14.20
2017-09-11T04:58:08.118Z,13.90
2017-09-11T05:00:37.544Z,13.80
2017-09-11T05:03:06.920Z,13.80
2017-09-11T05:05:36.939Z,13.80
2017-09-11T05:08:06.289Z,13.70
2017-09-11T05:10:35.618Z,13.70
2017-09-11T05:13:05.028Z,13.70
2017-09-11T05:15:34.853Z,13.70
2017-09-11T05:18:04.855Z,13.70
2017-09-11T05:20:34.218Z,13.70
2017-09-11T05:23:03.598Z,13.70
2017-09-11T05:25:32.891Z,13.70
2017-09-11T05:28:03.407Z,13.70
2017-09-11T05:30:34.174Z,13.70
2017-09-11T05:33:03.686Z,13.70
2017-09-11T05:35:33.132Z,13.70
2017-09-11T05:38:03.211Z,13.70
2017-09-11T05:40:32.590Z,13.70
2017-09-11T05:43:03.010Z,13.20
2017-09-11T05:45:32.453Z,13.20
2017-09-11T05:48:01.866Z,13.00
2017-09-11T05:50:31.140Z,13.00
2017-09-11T05:53:01.130Z,12.80
2017-09-11T05:55:31.508Z,12.70
2017-09-11T05:58:00.851Z,12.70
2017-09-11T06:00:31.040Z,12.50
2017-09-11T06:03:01.841Z,12.50
2017-09-11T06:05:31.166Z,12.50
2017-09-11T06:08:00.778Z,12.50
2017-09-11T06:10:30.225Z,12.50
2017-09-11T06:13:00.250Z,12.50
2017-09-11T06:15:29.653Z,12.50
2017-09-11T06:17:59.152Z,12.50
2017-09-11T06:20:30.802Z,12.60
2017-09-11T06:23:00.177Z,12.60
2017-09-11T06:25:29.939Z,12.70
2017-09-11T06:27:59.635Z,12.70
2017-09-11T06:30:30.255Z,12.70
2017-09-11T06:33:00.056Z,12.70
2017-09-11T06:35:29.263Z,12.70
2017-09-11T06:37:59.331Z,12.90
2017-09-11T06:40:28.702Z,12.90
2017-09-11T06:42:58.186Z,12.90
2017-09-11T06:45:28.397Z,13.00
2017-09-11T06:47:58.330Z,13.00
2017-09-11T06:50:27.716Z,13.00
2017-09-11T06:52:57.934Z,13.10
2017-09-11T06:55:27.615Z,13.10
2017-09-11T06:57:56.898Z,13.20
2017-09-11T07:00:26.326Z,13.20
2017-09-11T07:02:55.684Z,13.40
2017-09-11T07:05:25.079Z,13.50
2017-09-11T07:07:55.223Z,13.60
2017-09-11T07:10:24.810Z,13.60
2017-09-11T07:13:36.533Z,13.70
2017-09-11T07:16:05.836Z,13.60
2017-09-11T07:18:35.385Z,13.80
2017-09-11T07:21:05.094Z,14.10
2017-09-11T07:23:34.405Z,14.30
2017-09-11T07:26:04.102Z,14.50
2017-09-11T07:28:33.423Z,14.60
2017-09-11T07:31:02.746Z,14.70
2017-09-11T07:33:32.017Z,14.80
2017-09-11T07:36:01.302Z,14.70
2017-09-11T07:38:30.466Z,14.60
2017-09-11T07:41:00.166Z,14.60
2017-09-11T07:43:29.443Z,14.60
2017-09-11T07:45:59.446Z,14.70
2017-09-11T07:48:29.472Z,14.70
2017-09-11T07:50:58.802Z,14.70
2017-09-11T07:53:28.393Z,14.80
2017-09-11T07:55:57.963Z,14.80
2017-09-11T07:58:27.281Z,14.80
2017-09-11T08:00:57.378Z,15.00
2017-09-11T08:03:26.874Z,15.00
2017-09-11T08:05:56.231Z,15.10
2017-09-11T08:08:25.486Z,15.00
2017-09-11T08:10:55.519Z,15.20
2017-09-11T08:13:25.619Z,15.40
2017-09-11T08:15:55.911Z,15.40
2017-09-11T08:18:25.260Z,15.50
2017-09-11T08:20:55.278Z,15.80
2017-09-11T08:23:25.346Z,15.80
2017-09-11T08:25:54.799Z,15.80
2017-09-11T08:28:25.142Z,16.10
2017-09-11T08:30:54.339Z,16.00
2017-09-11T08:33:24.549Z,17.10
2017-09-11T08:35:54.646Z,18.30
2017-09-11T08:38:23.911Z,18.20
2017-09-11T08:40:53.179Z,19.40
2017-09-11T08:43:22.430Z,20.00
2017-09-11T08:45:51.770Z,20.40
2017-09-11T08:48:21.947Z,20.50
2017-09-11T08:50:51.408Z,20.50
2017-09-11T08:53:21.931Z,21.70
2017-09-11T08:55:51.253Z,21.60
2017-09-11T08:58:20.745Z,22.30
2017-09-11T09:00:50.966Z,22.60
2017-09-11T09:03:20.314Z,22.50
2017-09-11T09:05:49.554Z,22.50
2017-09-11T09:08:19.102Z,22.80
2017-09-11T09:10:48.351Z,22.10
2017-09-11T09:13:18.415Z,21.90
2017-09-11T09:15:47.775Z,21.90
2017-09-11T09:18:18.250Z,22.20
2017-09-11T09:20:47.765Z,23.10
2017-09-11T09:23:17.130Z,23.50
2017-09-11T09:25:46.426Z,23.60
2017-09-11T09:29:18.596Z,23.80
2017-09-11T09:31:49.344Z,23.80
2017-09-11T09:34:18.749Z,23.80
2017-09-11T09:36:48.389Z,24.30
2017-09-11T09:39:17.872Z,24.50
2017-09-11T09:41:47.383Z,23.40
2017-09-11T09:44:16.997Z,23.60
2017-09-11T09:46:46.291Z,24.00
2017-09-11T09:49:15.891Z,24.70
2017-09-11T09:51:45.276Z,25.70
2017-09-11T09:54:16.639Z,25.40
2017-09-11T09:56:46.974Z,24.70
2017-09-11T09:59:16.727Z,23.70
2017-09-11T10:01:47.396Z,23.60
2017-09-11T10:04:16.938Z,22.70
2017-09-11T10:06:46.438Z,21.90
2017-09-11T10:09:16.014Z,21.60
2017-09-11T10:11:45.519Z,21.40
2017-09-11T10:14:14.824Z,21.80
2017-09-11T10:16:44.090Z,22.80
2017-09-11T10:19:20.273Z,21.40
2017-09-11T10:21:50.435Z,20.60
2017-09-11T10:24:19.898Z,20.60
2017-09-11T10:26:49.276Z,20.00
2017-09-11T10:29:18.613Z,19.60
2017-09-11T10:31:47.878Z,19.30
2017-09-11T10:34:17.368Z,19.60
2017-09-11T10:36:49.565Z,21.80
2017-09-11T10:39:19.193Z,22.90
2017-09-11T10:41:48.606Z,23.70
2017-09-11T10:44:19.006Z,25.80
2017-09-11T10:46:48.307Z,25.80
2017-09-11T10:49:17.702Z,26.80
2017-09-11T10:51:48.981Z,27.40
2017-09-11T10:54:18.661Z,27.40
2017-09-11T10:56:49.400Z,27.60
2017-09-11T10:59:18.845Z,27.50
2017-09-11T11:01:49.011Z,27.00
2017-09-11T11:04:18.700Z,26.70
2017-09-11T11:06:48.364Z,26.50
2017-09-11T11:09:17.903Z,26.10
2017-09-11T11:11:48.081Z,24.60
2017-09-11T11:14:17.659Z,24.60
2017-09-11T11:16:47.547Z,24.80
2017-09-11T11:19:16.913Z,25.90
2017-09-11T11:21:46.607Z,26.30
2017-09-11T11:24:16.189Z,25.30
2017-09-11T11:26:46.250Z,27.10
2017-09-11T11:29:15.762Z,27.10
2017-09-11T11:31:46.025Z,27.70
2017-09-11T11:34:15.669Z,27.40
2017-09-11T11:36:45.003Z,26.70
2017-09-11T11:39:14.581Z,24.70
2017-09-11T11:41:44.093Z,22.90
2017-09-11T11:44:13.529Z,23.00
2017-09-11T11:46:43.303Z,23.50
2017-09-11T11:49:12.727Z,22.10
2017-09-11T11:51:42.129Z,21.10
2017-09-11T11:54:12.066Z,21.90
2017-09-11T11:56:42.525Z,21.90
2017-09-11T11:59:15.515Z,21.30
2017-09-11T12:01:45.840Z,21.30
2017-09-11T12:04:15.352Z,20.80
2017-09-11T12:06:45.083Z,22.70
2017-09-11T12:09:14.473Z,24.60
2017-09-11T12:11:44.023Z,24.80
2017-09-11T12:14:13.352Z,25.80
2017-09-11T12:16:43.535Z,23.50
2017-09-11T12:19:15.651Z,23.50
2017-09-11T12:21:45.968Z,21.90
2017-09-11T12:24:15.528Z,20.70
2017-09-11T12:26:45.205Z,20.60
2017-09-11T12:29:14.656Z,20.60
2017-09-11T12:31:44.224Z,20.40
2017-09-11T12:34:14.691Z,20.80
2017-09-11T12:36:44.126Z,21.00
2017-09-11T12:39:14.708Z,20.30
2017-09-11T12:41:44.019Z,20.30
2017-09-11T12:44:13.488Z,19.90
2017-09-11T12:46:44.431Z,19.40
2017-09-11T12:49:13.743Z,19.30
2017-09-11T12:51:43.313Z,19.40
2017-09-11T12:54:13.420Z,19.70
2017-09-11T12:56:42.851Z,19.80
2017-09-11T12:59:13.302Z,20.10
2017-09-11T13:01:42.792Z,20.10
2017-09-11T13:04:12.343Z,19.80
2017-09-11T13:06:42.268Z,19.70
2017-09-11T13:09:12.678Z,19.90
2017-09-11T13:11:43.047Z,20.50
2017-09-11T13:14:14.398Z,20.50
2017-09-11T13:16:44.682Z,20.90
2017-09-11T13:19:14.309Z,20.90
2017-09-11T13:21:44.540Z,21.80
2017-09-11T13:24:14.898Z,22.30
2017-09-11T13:26:45.677Z,21.40
2017-09-11T13:29:14.967Z,21.40
2017-09-11T13:31:44.397Z,20.90
2017-09-11T13:34:14.086Z,20.60
2017-09-11T13:36:43.515Z,20.70
2017-09-11T13:39:13.732Z,20.70
2017-09-11T13:41:43.524Z,20.60
2017-09-11T13:44:13.111Z,21.30
2017-09-11T13:46:43.703Z,20.70
2017-09-11T13:49:13.096Z,20.60
2017-09-11T13:51:43.731Z,20.40
2017-09-11T13:54:13.192Z,20.40
2017-09-11T13:56:44.014Z,21.00
2017-09-11T13:59:13.604Z,20.90
2017-09-11T14:01:43.209Z,21.00
2017-09-11T14:04:12.904Z,21.10
2017-09-11T14:06:44.022Z,21.30
2017-09-11T14:09:14.541Z,20.50
2017-09-11T14:12:16.586Z,20.50
2017-09-11T14:15:04.023Z,20.30
2017-09-11T14:17:33.544Z,20.20
2017-09-11T14:20:04.226Z,20.00
2017-09-11T14:22:34.050Z,20.00
2017-09-11T14:25:04.049Z,19.80
2017-09-11T14:27:33.967Z,19.80
2017-09-11T14:30:04.387Z,19.90
2017-09-11T14:32:34.007Z,20.20
2017-09-11T14:35:03.591Z,20.40
2017-09-11T14:37:34.477Z,20.10
2017-09-11T14:40:04.202Z,20.00
2017-09-11T14:42:34.678Z,20.10
2017-09-11T14:45:04.552Z,20.00
2017-09-11T14:47:34.588Z,20.10
2017-09-11T14:50:05.039Z,20.00
2017-09-11T14:52:34.440Z,20.00
2017-09-11T14:55:06.197Z,19.90
2017-09-11T14:57:35.682Z,19.70
2017-09-11T15:00:06.039Z,19.70
2017-09-11T15:02:36.185Z,19.70
2017-09-11T15:05:05.871Z,19.90
2017-09-11T15:07:35.474Z,19.70
2017-09-11T15:10:05.292Z,19.60
2017-09-11T15:12:39.819Z,19.80
2017-09-11T15:15:09.833Z,20.00
2017-09-11T15:17:39.467Z,20.20
2017-09-11T15:20:08.990Z,20.00
2017-09-11T15:22:38.355Z,20.10
2017-09-11T15:25:08.016Z,20.30
2017-09-11T15:27:37.928Z,20.30
2017-09-11T15:30:07.795Z,20.20
2017-09-11T15:32:38.776Z,19.80
2017-09-11T15:35:08.305Z,19.80
2017-09-11T15:37:37.797Z,19.60
2017-09-11T15:40:07.753Z,19.30
2017-09-11T15:42:38.085Z,19.30
2017-09-11T15:45:07.534Z,19.30
2017-09-11T15:47:37.904Z,19.40
2017-09-11T15:50:07.514Z,19.30
2017-09-11T15:52:37.744Z,19.30
2017-09-11T15:55:07.470Z,19.30
2017-09-11T15:57:37.026Z,19.30
2017-09-11T16:00:07.079Z,19.30
2017-09-11T16:02:36.688Z,19.30
2017-09-11T16:05:06.023Z,19.10
2017-09-11T16:07:36.193Z,19.10
2017-09-11T16:10:06.318Z,19.10
2017-09-11T16:12:35.731Z,19.10
2017-09-11T16:15:05.668Z,19.00
2017-09-11T16:17:36.547Z,19.10
2017-09-11T16:20:07.623Z,19.10
2017-09-11T16:22:37.447Z,19.00
2017-09-11T16:25:07.616Z,19.00
2017-09-11T16:27:37.999Z,19.00
2017-09-11T16:30:07.486Z,19.00
2017-09-11T16:32:37.539Z,19.00
2017-09-11T16:35:08.069Z,19.10
2017-09-11T16:37:37.958Z,19.00
2017-09-11T16:40:09.036Z,19.00
2017-09-11T16:42:39.046Z,18.90
2017-09-11T16:45:08.602Z,18.80
2017-09-11T16:47:39.287Z,18.70
2017-09-11T16:50:09.066Z,18.70
2017-09-11T16:52:39.779Z,18.60
2017-09-11T16:55:10.141Z,18.50
2017-09-11T16:57:40.471Z,18.50
2017-09-11T17:00:10.860Z,18.50
2017-09-11T17:02:40.596Z,18.50
2017-09-11T17:05:12.150Z,18.50
2017-09-11T17:07:43.200Z,18.40
2017-09-11T17:10:13.516Z,18.30
2017-09-11T17:12:43.423Z,18.20
2017-09-11T17:15:12.952Z,18.20
2017-09-11T17:17:43.531Z,18.20
2017-09-11T17:20:14.115Z,18.20
2017-09-11T17:22:44.701Z,18.00
2017-09-11T17:25:14.235Z,18.00
2017-09-11T17:27:44.072Z,17.90
2017-09-11T17:30:13.647Z,17.90
2017-09-11T17:32:43.516Z,17.90
2017-09-11T17:35:13.984Z,17.90
2017-09-11T17:37:43.794Z,17.90
2017-09-11T17:40:13.775Z,17.90
2017-09-11T17:42:43.710Z,17.90
2017-09-11T17:45:13.515Z,17.90
2017-09-11T17:47:43.207Z,17.80
2017-09-11T17:50:12.953Z,17.70
2017-09-11T17:52:42.961Z,17.80
2017-09-11T17:55:13.248Z,17.60
2017-09-11T17:57:43.021Z,17.60
2017-09-11T18:00:12.487Z,17.70
2017-09-11T18:02:43.106Z,17.60
2017-09-11T18:05:12.888Z,17.60
2017-09-11T18:07:44.055Z,17.50
2017-09-11T18:10:13.484Z,17.40
2017-09-11T18:12:44.448Z,17.10
2017-09-11T18:15:14.727Z,17.10
2017-09-11T18:17:45.120Z,17.10
2017-09-11T18:20:14.992Z,17.10
2017-09-11T18:22:52.764Z,17.20
2017-09-11T18:25:24.421Z,17.10
2017-09-11T18:30:42.567Z,17.10
2017-09-11T18:33:12.838Z,17.00
2017-09-11T18:35:43.009Z,17.10
2017-09-11T18:38:14.368Z,17.00
2017-09-11T18:40:46.568Z,17.00
2017-09-11T18:43:16.860Z,16.90
2017-09-11T18:46:16.724Z,16.80
2017-09-11T18:48:47.261Z,16.80
2017-09-11T18:51:16.758Z,16.70
2017-09-11T18:53:47.144Z,16.60
2017-09-11T18:56:16.929Z,16.60
2017-09-11T18:58:47.738Z,16.60
2017-09-11T19:01:20.922Z,16.40
2017-09-11T19:03:50.769Z,16.40
2017-09-11T19:06:20.640Z,16.40
2017-09-11T19:08:52.461Z,16.30
2017-09-11T19:11:23.258Z,16.20
2017-09-11T19:13:53.337Z,16.20
2017-09-11T19:16:29.260Z,16.10
2017-09-11T19:19:22.761Z,16.10
2017-09-11T19:22:02.803Z,16.10
2017-09-11T19:24:40.673Z,16.00
2017-09-11T19:27:22.270Z,16.00
2017-09-11T19:29:52.256Z,16.00
2017-09-11T19:32:22.708Z,15.90
2017-09-11T19:35:01.954Z,15.90
2017-09-11T19:37:31.965Z,15.80
2017-09-11T19:40:03.441Z,15.80
2017-09-11T19:42:42.095Z,15.70
2017-09-11T19:45:12.052Z,15.70
2017-09-11T19:47:43.665Z,15.70
2017-09-11T19:50:14.825Z,15.70
2017-09-11T19:52:49.835Z,15.60
2017-09-11T19:55:20.003Z,15.60
2017-09-11T19:57:49.562Z,15.60
2017-09-11T20:00:22.855Z,15.60
2017-09-11T20:02:56.546Z,15.60
2017-09-11T20:05:29.490Z,15.60
2017-09-11T20:08:00.178Z,15.60
2017-09-11T20:10:32.183Z,15.50
2017-09-11T20:13:05.187Z,15.50
2017-09-11T20:15:35.361Z,15.50
2017-09-11T20:18:06.130Z,15.50
2017-09-11T20:20:39.088Z,15.50
2017-09-11T20:23:09.140Z,15.50
2017-09-11T20:25:39.099Z,15.50
2017-09-11T20:28:09.310Z,15.50
2017-09-11T20:30:41.111Z,15.50
2017-09-11T20:33:10.653Z,15.40
2017-09-11T20:35:40.378Z,15.40
2017-09-11T20:38:09.857Z,15.40
2017-09-11T20:40:41.284Z,15.50
2017-09-11T20:46:32.011Z,15.40
2017-09-11T20:49:02.514Z,15.40
2017-09-11T20:51:32.352Z,15.40
2017-09-11T20:54:03.133Z,15.40
2017-09-11T20:56:33.065Z,15.30
2017-09-11T20:59:03.167Z,15.30
2017-09-11T21:01:32.813Z,15.30
2017-09-11T21:04:02.997Z,15.30
2017-09-11T21:06:33.462Z,15.30
2017-09-11T21:09:03.599Z,15.30
2017-09-11T21:11:34.401Z,15.20
2017-09-11T21:14:04.636Z,15.20
2017-09-11T21:16:36.068Z,15.20
2017-09-11T21:19:05.526Z,15.20
2017-09-11T21:21:36.053Z,15.10
2017-09-11T21:24:05.697Z,15.10
2017-09-11T21:26:36.367Z,15.10
2017-09-11T21:29:06.583Z,15.10
2017-09-11T21:31:36.008Z,15.10
2017-09-11T21:34:06.531Z,15.10
2017-09-11T21:36:36.639Z,15.20
2017-09-11T21:39:07.130Z,15.10
2017-09-11T21:41:36.779Z,15.10
2017-09-11T21:44:06.057Z,15.10
2017-09-11T21:46:35.406Z,15.10
2017-09-11T21:49:05.167Z,15.00
2017-09-11T21:51:56.116Z,15.10
2017-09-11T21:54:25.490Z,15.10
2017-09-11T21:56:54.741Z,15.10
2017-09-11T21:59:26.972Z,15.00
2017-09-11T22:01:57.092Z,15.00
2017-09-11T22:04:26.417Z,15.00
2017-09-11T22:06:55.959Z,15.00
2017-09-11T22:09:25.263Z,15.00
2017-09-11T22:11:54.657Z,14.90
2017-09-11T22:14:23.937Z,14.90
2017-09-11T22:16:53.240Z,14.90
2017-09-11T22:19:23.364Z,14.90
2017-09-11T22:21:52.724Z,14.90
2017-09-11T22:24:22.581Z,15.00
2017-09-11T22:26:52.618Z,14.90
2017-09-11T22:29:21.953Z,14.90
2017-09-11T22:31:51.261Z,14.80
2017-09-11T22:34:21.488Z,14.80
2017-09-11T22:36:50.786Z,14.70
2017-09-11T22:39:20.395Z,14.70
2017-09-11T22:41:50.154Z,14.70
2017-09-11T22:44:19.477Z,14.70
2017-09-11T22:46:49.028Z,14.70
2017-09-11T22:49:19.219Z,14.70
2017-09-11T22:51:48.647Z,14.70
2017-09-11T22:54:18.129Z,14.70
2017-09-11T22:56:47.431Z,14.70
2017-09-11T22:59:16.632Z,14.70
2017-09-11T23:01:47.072Z,14.70
2017-09-11T23:04:16.549Z,14.70
2017-09-11T23:06:47.149Z,14.70
2017-09-11T23:09:17.459Z,14.70
2017-09-11T23:11:48.253Z,14.70
2017-09-11T23:14:19.405Z,14.60
2017-09-11T23:16:50.153Z,14.60
2017-09-11T23:19:20.901Z,14.60
2017-09-11T23:21:51.317Z,14.60
2017-09-11T23:24:22.078Z,14.60
2017-09-11T23:26:51.640Z,14.60
2017-09-11T23:29:21.143Z,14.70
2017-09-11T23:31:54.221Z,14.70
2017-09-11T23:34:26.911Z,14.70
2017-09-11T23:36:58.885Z,14.70
2017-09-11T23:39:28.771Z,14.70
2017-09-11T23:41:58.372Z,14.70
2017-09-11T23:44:32.129Z,14.70
2017-09-11T23:47:02.125Z,14.80
2017-09-11T23:49:31.378Z,14.80
2017-09-11T23:52:00.754Z,14.90
2017-09-11T23:54:30.400Z,14.90
2017-09-11T23:56:59.708Z,14.90
2017-09-11T23:59:29.063Z,14.80
